Time;durP1;ratioP1;P1;durP2;ratioP2;P2;SDS_P1;SDS_P2;PMS_P1;PMS_P2;Temp;Humidity;BMP_temperature;BMP_pressure;BME280_temperature;BME280_humidity;BME280_pressure;Samples;Min_cycle;Max_cycle;Signal;HPM_P1;HPM_P2
2021/06/18 00:01:24;;;;;;;10.77;5.18;;;28.00;51.10;;;;;;6271124;28;20028;-75
2021/06/18 00:04:25;;;;;;;8.95;4.60;;;28.00;51.20;;;;;;6269999;28;20504;-75
2021/06/18 00:07:27;;;;;;;11.82;5.13;;;27.90;51.20;;;;;;6270771;28;20402;-75
2021/06/18 00:10:28;;;;;;;7.50;4.90;;;27.80;51.20;;;;;;6270451;28;20048;-75
2021/06/18 00:13:29;;;;;;;11.63;5.00;;;27.80;51.30;;;;;;6254332;28;20108;-75
2021/06/18 00:16:32;;;;;;;7.80;5.18;;;27.80;51.50;;;;;;6253265;28;20425;-76
2021/06/18 00:19:33;;;;;;;8.70;4.85;;;27.70;51.50;;;;;;6270907;28;20025;-76
2021/06/18 00:22:34;;;;;;;12.55;4.75;;;27.70;51.50;;;;;;6270677;28;20044;-75
2021/06/18 00:25:35;;;;;;;9.70;5.05;;;27.70;51.60;;;;;;6269389;28;20037;-75
2021/06/18 00:28:36;;;;;;;7.78;5.13;;;27.70;51.70;;;;;;6253322;28;20037;-75
2021/06/18 00:31:39;;;;;;;9.38;5.43;;;27.70;51.70;;;;;;6253273;28;20082;-75
2021/06/18 00:34:40;;;;;;;9.45;5.47;;;27.80;51.70;;;;;;6251686;28;20060;-75
2021/06/18 00:37:41;;;;;;;7.82;5.28;;;27.70;51.70;;;;;;6268719;28;20025;-75
2021/06/18 00:40:45;;;;;;;8.18;4.53;;;27.60;51.90;;;;;;6293989;28;20039;-75
2021/06/18 00:43:46;;;;;;;8.68;4.60;;;27.60;52.10;;;;;;6295406;28;20029;-75
2021/06/18 00:46:49;;;;;;;8.02;5.00;;;27.60;51.80;;;;;;6277111;28;20063;-75
2021/06/18 00:49:51;;;;;;;15.38;5.15;;;27.50;51.70;;;;;;6278283;28;20028;-76
2021/06/18 00:52:52;;;;;;;8.13;5.38;;;27.50;51.70;;;;;;6273394;28;20119;-76
2021/06/18 00:55:54;;;;;;;6.80;5.25;;;27.50;51.60;;;;;;6283344;28;20446;-76
2021/06/18 00:58:55;;;;;;;11.20;4.82;;;27.40;51.50;;;;;;6298669;28;20082;-75
2021/06/18 01:01:56;;;;;;;10.40;4.95;;;27.50;51.60;;;;;;6278565;28;20115;-75
2021/06/18 01:04:57;;;;;;;10.63;5.10;;;27.50;51.70;;;;;;6273500;28;20491;-74
2021/06/18 01:08:39;;;;;;;8.82;4.93;;;27.50;51.90;;;;;;6283622;28;20093;-75
2021/06/18 01:12:03;;;;;;;10.85;5.13;;;27.50;52.50;;;;;;6278902;28;20035;-75
2021/06/18 01:23:51;;;;;;;9.52;5.38;;;27.50;54.60;;;;;;6292992;28;20029;-74
2021/06/18 01:27:08;;;;;;;9.40;6.32;;;27.50;55.30;;;;;;6290203;28;20031;-75
2021/06/18 01:30:15;;;;;;;11.52;6.20;;;27.50;55.50;;;;;;6261387;28;20358;-75
2021/06/18 01:33:19;;;;;;;10.75;6.28;;;27.50;55.60;;;;;;6277318;28;20037;-75
2021/06/18 01:36:21;;;;;;;7.22;5.60;;;27.50;55.50;;;;;;6277892;28;20037;-75
2021/06/18 01:39:23;;;;;;;9.65;6.80;;;27.50;55.30;;;;;;6260310;28;20033;-75
2021/06/18 01:42:26;;;;;;;14.00;7.40;;;27.50;55.20;;;;;;6277575;28;20112;-76
2021/06/18 01:45:28;;;;;;;12.77;6.40;;;27.50;55.20;;;;;;6260063;28;20044;-77
2021/06/18 01:48:32;;;;;;;9.18;6.05;;;27.50;55.30;;;;;;6259750;28;20370;-75
2021/06/18 01:51:34;;;;;;;9.40;5.55;;;27.50;55.30;;;;;;6259849;28;20025;-76
2021/06/18 01:54:37;;;;;;;9.95;5.38;;;27.50;55.40;;;;;;6259994;28;20033;-76
2021/06/18 01:57:40;;;;;;;7.93;5.43;;;27.40;55.10;;;;;;6266681;28;20116;-76
2021/06/18 02:00:44;;;;;;;9.45;5.38;;;27.40;54.70;;;;;;6259020;28;20108;-76
2021/06/18 02:03:46;;;;;;;11.65;5.32;;;27.30;54.40;;;;;;6233591;28;20101;-76
2021/06/18 02:06:50;;;;;;;8.05;4.95;;;27.30;54.10;;;;;;6234646;28;20112;-75
2021/06/18 02:09:51;;;;;;;7.53;5.10;;;27.30;54.00;;;;;;6282445;28;20028;-76
2021/06/18 02:12:55;;;;;;;11.25;5.80;;;27.20;53.80;;;;;;6284171;28;20032;-75
2021/06/18 02:15:58;;;;;;;7.60;4.97;;;27.20;53.70;;;;;;6266368;28;20024;-75
2021/06/18 02:18:59;;;;;;;8.75;5.20;;;27.20;53.70;;;;;;6301404;28;20044;-74
2021/06/18 02:22:05;;;;;;;9.40;5.75;;;27.10;53.70;;;;;;6301064;28;20094;-75
2021/06/18 02:25:08;;;;;;;7.70;5.38;;;27.10;53.70;;;;;;6283783;28;20028;-75
2021/06/18 02:28:09;;;;;;;7.97;5.40;;;27.10;53.70;;;;;;6282934;28;20047;-75
2021/06/18 02:31:13;;;;;;;8.88;5.13;;;27.10;53.90;;;;;;6283285;28;20111;-75
2021/06/18 02:34:14;;;;;;;16.27;6.22;;;27.00;54.30;;;;;;6261063;28;20025;-75
2021/06/18 02:37:16;;;;;;;11.20;6.18;;;27.00;54.60;;;;;;6276282;28;20029;-75
2021/06/18 02:40:18;;;;;;;10.30;6.13;;;27.00;54.80;;;;;;6258644;28;20506;-75
2021/06/18 02:43:19;;;;;;;8.75;5.45;;;27.00;55.70;;;;;;6258424;28;20029;-75
2021/06/18 02:46:29;;;;;;;9.57;6.15;;;27.00;55.20;;;;;;6275611;28;20350;-75
2021/06/18 02:49:39;;;;;;;9.23;6.15;;;27.00;55.10;;;;;;6257947;28;20036;-76
2021/06/18 02:52:40;;;;;;;13.10;7.00;;;27.10;55.10;;;;;;6257992;28;20094;-75
2021/06/18 02:55:55;;;;;;;9.95;6.30;;;27.10;55.20;;;;;;6274692;28;20037;-76
2021/06/18 02:59:02;;;;;;;10.43;6.60;;;27.10;55.40;;;;;;6275139;28;20029;-76
2021/06/18 03:02:08;;;;;;;11.33;6.00;;;27.10;55.60;;;;;;6256535;28;20472;-78
2021/06/18 03:05:15;;;;;;;8.30;5.50;;;27.00;55.60;;;;;;6258181;28;20082;-75
2021/06/18 03:08:18;;;;;;;10.77;6.35;;;27.00;55.70;;;;;;6275979;28;20036;-77
2021/06/18 03:11:21;;;;;;;6.88;5.47;;;27.00;55.80;;;;;;6276253;28;20342;-76
2021/06/18 03:14:28;;;;;;;11.10;6.38;;;27.00;55.80;;;;;;6275470;28;20029;-77
2021/06/18 03:17:31;;;;;;;8.27;5.93;;;27.00;55.80;;;;;;6272360;28;20040;-76
2021/06/18 03:21:09;;;;;;;9.60;6.28;;;27.00;55.90;;;;;;6281981;28;20029;-76
2021/06/18 03:24:12;;;;;;;10.25;5.85;;;26.90;55.90;;;;;;6251520;28;20033;-75
2021/06/18 03:27:14;;;;;;;10.25;5.90;;;26.90;56.00;;;;;;6252136;28;20430;-76
2021/06/18 03:30:16;;;;;;;10.95;6.95;;;26.90;56.20;;;;;;6251349;28;20079;-77
2021/06/18 03:33:21;;;;;;;10.98;7.03;;;26.90;56.20;;;;;;6241622;28;20029;-76
2021/06/18 03:36:24;;;;;;;10.93;6.35;;;26.90;56.20;;;;;;6242859;28;20040;-77
2021/06/18 03:39:27;;;;;;;8.18;5.75;;;26.80;56.20;;;;;;6269333;28;20346;-76
2021/06/18 03:42:28;;;;;;;9.50;6.30;;;26.80;56.20;;;;;;6253297;28;20108;-76
2021/06/18 03:45:29;;;;;;;11.15;6.30;;;26.80;56.20;;;;;;6253565;28;20037;-76
2021/06/18 03:48:32;;;;;;;8.50;5.93;;;26.80;56.30;;;;;;6236249;28;20032;-76
2021/06/18 03:51:35;;;;;;;11.77;5.82;;;26.70;56.20;;;;;;6236816;28;20048;-76
2021/06/18 03:54:37;;;;;;;8.30;5.72;;;26.70;56.30;;;;;;6252648;28;20037;-76
2021/06/18 03:57:41;;;;;;;15.85;6.13;;;26.70;56.30;;;;;;6253195;28;20116;-75
2021/06/18 04:00:43;;;;;;;8.32;5.40;;;26.70;56.30;;;;;;6252942;28;20036;-76
2021/06/18 04:03:49;;;;;;;8.50;5.97;;;26.70;56.20;;;;;;6269072;28;20061;-75
2021/06/18 04:06:51;;;;;;;8.18;5.63;;;26.60;56.20;;;;;;6236358;28;20412;-75
2021/06/18 04:09:53;;;;;;;9.00;6.00;;;26.60;56.20;;;;;;6252292;28;20043;-75
2021/06/18 04:12:54;;;;;;;12.23;5.85;;;26.60;56.20;;;;;;6252141;28;20028;-76
2021/06/18 04:15:55;;;;;;;7.95;5.03;;;26.50;56.70;;;;;;6254998;28;20176;-75
2021/06/18 04:18:58;;;;;;;11.40;6.18;;;26.50;56.20;;;;;;6292086;28;20035;-75
2021/06/18 04:22:02;;;;;;;10.38;6.38;;;26.50;56.20;;;;;;6277046;28;20115;-76
2021/06/18 04:25:05;;;;;;;12.13;5.72;;;26.50;56.20;;;;;;6278321;28;20028;-76
2021/06/18 04:28:06;;;;;;;7.80;5.60;;;26.50;56.10;;;;;;6283475;28;20035;-76
2021/06/18 04:31:07;;;;;;;8.35;5.88;;;26.60;56.10;;;;;;6295534;28;20033;-76
2021/06/18 04:34:08;;;;;;;11.32;6.07;;;26.60;56.00;;;;;;6273853;28;20025;-76
2021/06/18 04:37:09;;;;;;;13.95;6.20;;;26.50;56.00;;;;;;6252193;28;20131;-76
2021/06/18 04:40:12;;;;;;;10.35;5.68;;;26.50;56.00;;;;;;6253674;28;20052;-74
2021/06/18 04:43:13;;;;;;;7.95;5.15;;;26.50;56.00;;;;;;6271278;28;20323;-75
2021/06/18 04:46:14;;;;;;;9.55;5.35;;;26.50;55.90;;;;;;6253472;28;20021;-75
2021/06/18 04:49:15;;;;;;;9.40;5.00;;;26.50;55.70;;;;;;6242972;28;20397;-75
2021/06/18 04:52:17;;;;;;;8.20;5.53;;;26.50;55.60;;;;;;6269747;28;20037;-75
2021/06/18 04:55:18;;;;;;;12.02;6.28;;;26.50;55.70;;;;;;6270022;28;20032;-76
2021/06/18 04:58:20;;;;;;;10.10;5.53;;;26.50;55.70;;;;;;6253376;28;20029;-75
2021/06/18 05:01:21;;;;;;;8.90;5.43;;;26.50;55.70;;;;;;6288925;28;20029;-75
2021/06/18 05:04:22;;;;;;;9.20;5.97;;;26.50;55.80;;;;;;6256226;28;20029;-76
2021/06/18 05:07:23;;;;;;;7.65;5.68;;;26.40;55.80;;;;;;6253658;28;20029;-76
2021/06/18 05:10:25;;;;;;;8.45;6.07;;;26.40;55.80;;;;;;6271452;28;20124;-76
2021/06/18 05:13:26;;;;;;;16.33;6.50;;;26.50;56.00;;;;;;6261689;28;20446;-76
2021/06/18 05:16:27;;;;;;;11.15;6.43;;;26.50;56.10;;;;;;6261427;28;20035;-76
2021/06/18 05:19:29;;;;;;;12.65;6.47;;;26.50;56.20;;;;;;6254235;28;20037;-76
2021/06/18 05:22:30;;;;;;;31.42;11.30;;;26.50;56.30;;;;;;6242942;28;20086;-76
2021/06/18 05:25:31;;;;;;;15.35;8.02;;;26.50;56.40;;;;;;6238448;28;20426;-76
2021/06/18 05:28:32;;;;;;;33.17;8.30;;;26.50;56.50;;;;;;6254250;28;20034;-76
2021/06/18 05:31:33;;;;;;;53.55;8.57;;;26.60;56.70;;;;;;6254229;28;20112;-76
2021/06/18 05:34:34;;;;;;;26.40;6.78;;;26.60;56.70;;;;;;6245185;28;20035;-76
2021/06/18 05:37:35;;;;;;;22.63;5.65;;;26.60;56.60;;;;;;6238797;28;20025;-76
2021/06/18 05:40:41;;;;;;;37.38;8.10;;;26.70;56.50;;;;;;6264201;28;20017;-76
2021/06/18 05:43:42;;;;;;;81.57;7.93;;;26.70;56.40;;;;;;6280164;28;20025;-75
2021/06/18 05:46:43;;;;;;;35.80;6.50;;;26.70;56.20;;;;;;6245570;28;20036;-75
2021/06/18 05:49:44;;;;;;;15.93;5.90;;;26.80;56.00;;;;;;6280306;28;20044;-75
2021/06/18 05:52:45;;;;;;;54.65;8.05;;;26.80;55.90;;;;;;6264262;28;20482;-76
2021/06/18 05:55:47;;;;;;;54.83;7.90;;;26.90;55.80;;;;;;6280189;28;20025;-76
2021/06/18 05:58:48;;;;;;;46.08;7.13;;;27.00;55.80;;;;;;6260922;28;20035;-76
2021/06/18 06:01:49;;;;;;;33.80;7.90;;;27.00;55.70;;;;;;6258697;28;20035;-76
2021/06/18 06:04:50;;;;;;;8.00;5.25;;;27.10;55.70;;;;;;6258051;28;20021;-76
2021/06/18 06:07:51;;;;;;;10.65;6.07;;;27.10;55.50;;;;;;6257891;28;20086;-76
2021/06/18 06:10:52;;;;;;;16.17;5.45;;;27.10;55.40;;;;;;6257892;28;20060;-77
2021/06/18 06:14:03;;;;;;;7.60;4.88;;;27.10;55.30;;;;;;6256323;28;20120;-75
2021/06/18 06:17:04;;;;;;;14.43;6.55;;;27.10;55.30;;;;;;6263331;28;20056;-75
2021/06/18 06:20:06;;;;;;;12.40;6.88;;;27.10;55.30;;;;;;6299225;28;20029;-75
2021/06/18 06:23:11;;;;;;;13.77;7.07;;;27.10;55.40;;;;;;6282301;28;20056;-75
2021/06/18 06:26:12;;;;;;;20.92;6.95;;;27.10;55.50;;;;;;6265430;28;20039;-76
2021/06/18 06:29:13;;;;;;;16.20;6.25;;;27.20;55.50;;;;;;6281319;28;20456;-76
2021/06/18 06:32:15;;;;;;;10.52;6.97;;;27.20;55.50;;;;;;6276980;28;20067;-76
2021/06/18 06:35:16;;;;;;;10.70;6.32;;;27.30;55.50;;;;;;6257370;28;20033;-76
2021/06/18 06:38:19;;;;;;;9.27;6.43;;;27.30;55.50;;;;;;6240624;28;20358;-76
2021/06/18 06:41:21;;;;;;;9.10;6.82;;;27.30;55.50;;;;;;6240508;28;20101;-76
2021/06/18 06:44:22;;;;;;;10.88;6.78;;;27.30;55.60;;;;;;6256834;28;20033;-78
2021/06/18 06:47:23;;;;;;;8.98;6.18;;;27.30;55.60;;;;;;6272781;28;20358;-76
2021/06/18 06:50:24;;;;;;;13.00;6.75;;;27.30;55.70;;;;;;6239878;28;20036;-76
2021/06/18 06:53:25;;;;;;;16.92;6.63;;;27.30;55.60;;;;;;6266854;28;20041;-76
2021/06/18 06:56:29;;;;;;;12.25;6.95;;;27.30;55.60;;;;;;6256311;28;20025;-77
2021/06/18 06:59:30;;;;;;;11.13;6.70;;;27.30;55.50;;;;;;6257318;28;20037;-77
2021/06/18 07:02:31;;;;;;;11.25;7.15;;;27.40;55.40;;;;;;6242931;28;20060;-76
2021/06/18 07:05:32;;;;;;;14.40;7.38;;;27.50;55.30;;;;;;6247273;28;20044;-76
2021/06/18 07:08:34;;;;;;;12.38;6.82;;;27.50;55.20;;;;;;6241552;28;20530;-76
2021/06/18 07:11:35;;;;;;;11.23;6.43;;;27.60;55.10;;;;;;6264532;28;20086;-77
2021/06/18 07:14:39;;;;;;;11.57;6.25;;;27.70;54.90;;;;;;6297631;28;20350;-75
2021/06/18 07:17:40;;;;;;;16.15;6.88;;;27.90;54.60;;;;;;6268839;28;20046;-76
2021/06/18 07:20:41;;;;;;;18.92;6.88;;;28.10;54.40;;;;;;6256166;28;20036;-77
2021/06/18 07:23:42;;;;;;;12.88;6.78;;;28.20;54.20;;;;;;6269476;28;20025;-75
2021/06/18 07:26:44;;;;;;;13.55;6.95;;;28.40;54.00;;;;;;6298096;28;20020;-78
2021/06/18 07:29:45;;;;;;;15.75;7.13;;;28.60;53.90;;;;;;6272737;28;20140;-76
2021/06/18 07:32:46;;;;;;;20.42;6.50;;;28.70;53.80;;;;;;6262292;28;20040;-77
2021/06/18 07:35:47;;;;;;;12.70;6.30;;;28.90;53.60;;;;;;6280008;28;20033;-77
2021/06/18 07:38:48;;;;;;;14.98;6.80;;;29.00;53.00;;;;;;6280648;28;20077;-75
2021/06/18 07:41:49;;;;;;;10.80;5.38;;;29.10;52.40;;;;;;6263506;28;20029;-75
2021/06/18 07:44:50;;;;;;;13.75;7.00;;;29.10;52.30;;;;;;6246389;28;20434;-76
2021/06/18 07:47:52;;;;;;;11.50;7.20;;;29.20;51.70;;;;;;6284401;28;20100;-75
2021/06/18 07:50:53;;;;;;;6.07;3.80;;;29.40;51.20;;;;;;6238328;28;20033;-75
2021/06/18 07:53:54;;;;;;;21.00;5.03;;;29.40;47.80;;;;;;6254094;28;20086;-75
2021/06/18 07:56:55;;;;;;;14.15;6.07;;;29.50;47.60;;;;;;6254771;28;20040;-76
2021/06/18 07:59:56;;;;;;;11.05;5.32;;;29.60;48.50;;;;;;6254582;28;20063;-76
2021/06/18 08:02:58;;;;;;;11.40;4.35;;;29.70;48.80;;;;;;6244596;28;20037;-75
2021/06/18 08:05:59;;;;;;;12.13;4.30;;;29.90;47.40;;;;;;6248625;28;20101;-77
2021/06/18 08:09:03;;;;;;;6.15;3.38;;;30.00;46.70;;;;;;6263631;28;20324;-76
2021/06/18 08:12:05;;;;;;;3.97;3.47;;;30.10;45.20;;;;;;6247000;28;20435;-77
2021/06/18 08:15:07;;;;;;;6.47;2.80;;;30.20;44.10;;;;;;6249971;28;20383;-76
2021/06/18 08:18:08;;;;;;;6.68;3.00;;;30.30;43.20;;;;;;6273815;28;20222;-76
2021/06/18 08:21:09;;;;;;;12.20;2.97;;;30.40;42.00;;;;;;6279317;28;21149;-75
2021/06/18 08:24:10;;;;;;;3.58;2.92;;;30.50;41.10;;;;;;6278568;28;20058;-76
2021/06/18 08:27:12;;;;;;;4.10;3.40;;;30.70;40.50;;;;;;6280267;28;20044;-76
2021/06/18 08:30:13;;;;;;;8.40;5.30;;;30.70;40.70;;;;;;6297364;28;20052;-76
2021/06/18 08:33:14;;;;;;;13.05;5.47;;;30.80;42.10;;;;;;6257738;28;20029;-75
2021/06/18 08:36:15;;;;;;;12.82;5.20;;;30.80;43.40;;;;;;6230004;28;20033;-75
2021/06/18 08:39:17;;;;;;;16.50;5.45;;;30.90;44.00;;;;;;6262903;28;20367;-76
2021/06/18 08:42:18;;;;;;;13.43;5.32;;;30.90;44.10;;;;;;6246261;28;20430;-76
2021/06/18 08:45:19;;;;;;;8.25;4.68;;;31.10;44.10;;;;;;6263601;28;20343;-76
2021/06/18 08:48:27;;;;;;;9.82;5.82;;;31.10;43.90;;;;;;6269180;28;20075;-75
2021/06/18 08:51:28;;;;;;;7.22;5.53;;;31.20;43.60;;;;;;6282202;28;20239;-76
2021/06/18 08:54:43;;;;;;;12.75;5.25;;;31.40;43.50;;;;;;6280615;28;20024;-76
2021/06/18 08:58:02;;;;;;;4.95;3.85;;;31.40;43.30;;;;;;6278919;28;20031;-76
2021/06/18 09:01:04;;;;;;;6.93;3.50;;;31.50;43.10;;;;;;6279679;28;20032;-76
2021/06/18 09:04:06;;;;;;;7.38;2.80;;;31.50;42.10;;;;;;6231688;28;20021;-75
2021/06/18 09:07:07;;;;;;;11.68;3.40;;;31.50;40.40;;;;;;6246116;28;20401;-75
2021/06/18 09:10:39;;;;;;;10.15;3.38;;;31.50;39.20;;;;;;6246457;28;20037;-76
2021/06/18 09:13:40;;;;;;;5.25;3.13;;;31.50;38.70;;;;;;6251642;28;20091;-76
2021/06/18 09:16:41;;;;;;;6.55;3.17;;;31.50;38.60;;;;;;6266488;28;20061;-76
2021/06/18 09:19:49;;;;;;;5.85;3.17;;;31.50;38.40;;;;;;6297135;28;20034;-76
2021/06/18 09:22:50;;;;;;;3.63;3.17;;;31.60;38.00;;;;;;6300484;28;20437;-77
2021/06/18 09:26:20;;;;;;;6.13;2.97;;;31.70;37.30;;;;;;6298472;28;20040;-76
2021/06/18 09:29:22;;;;;;;5.32;3.00;;;31.70;37.10;;;;;;6241363;28;20037;-76
2021/06/18 09:32:25;;;;;;;5.47;3.30;;;31.70;36.70;;;;;;6247196;28;20457;-75
2021/06/18 09:35:28;;;;;;;6.95;3.22;;;31.80;36.60;;;;;;6219127;28;20098;-76
2021/06/18 09:38:53;;;;;;;4.13;2.83;;;31.90;36.50;;;;;;6249966;28;20076;-76
2021/06/18 09:41:54;;;;;;;4.40;2.88;;;31.90;36.30;;;;;;6243924;28;20022;-77
2021/06/18 09:45:01;;;;;;;7.60;3.33;;;32.00;36.10;;;;;;6264070;28;20039;-76
2021/06/18 09:48:14;;;;;;;8.35;3.28;;;32.00;35.80;;;;;;6248314;28;20029;-76
2021/06/18 09:51:15;;;;;;;5.45;3.35;;;32.00;35.90;;;;;;6238371;28;20107;-78
2021/06/18 09:54:18;;;;;;;6.07;3.28;;;31.90;35.90;;;;;;6230555;28;20310;-75
2021/06/18 09:57:23;;;;;;;4.60;3.45;;;31.90;36.00;;;;;;6232461;28;20029;-75
2021/06/18 10:00:26;;;;;;;6.30;3.53;;;32.00;36.20;;;;;;6247619;28;20430;-75
2021/06/18 10:03:27;;;;;;;12.88;4.07;;;32.00;36.30;;;;;;6255020;28;20345;-76
2021/06/18 10:06:31;;;;;;;5.78;3.20;;;32.10;36.60;;;;;;6228785;28;20060;-76
2021/06/18 10:09:33;;;;;;;5.63;3.33;;;32.10;36.60;;;;;;6271564;28;20142;-75
2021/06/18 10:12:34;;;;;;;6.65;2.80;;;32.30;36.50;;;;;;6270487;28;20064;-75
2021/06/18 10:15:38;;;;;;;6.22;3.60;;;32.40;36.20;;;;;;6272751;28;20037;-76
2021/06/18 10:18:39;;;;;;;5.80;3.47;;;32.40;35.80;;;;;;6275124;28;20037;-75
2021/06/18 10:21:56;;;;;;;9.02;4.20;;;32.50;36.50;;;;;;6287627;28;20059;-77
2021/06/18 10:25:04;;;;;;;3.90;3.20;;;32.50;36.00;;;;;;6247706;28;20134;-75
2021/06/18 10:28:07;;;;;;;8.10;3.80;;;32.60;35.70;;;;;;6249648;28;20186;-75
2021/06/18 10:31:25;;;;;;;6.97;3.47;;;32.60;35.50;;;;;;6285729;28;20044;-76
2021/06/18 10:34:38;;;;;;;7.10;3.35;;;32.70;35.70;;;;;;6239096;28;20104;-76
2021/06/18 10:37:48;;;;;;;5.57;3.70;;;32.70;35.70;;;;;;6269665;28;20169;-77
2021/06/18 10:40:49;;;;;;;4.05;3.35;;;32.70;35.70;;;;;;6264616;28;20025;-77
2021/06/18 10:43:51;;;;;;;6.40;3.15;;;32.80;35.40;;;;;;6247923;28;20084;-76
2021/06/18 10:46:52;;;;;;;12.27;4.03;;;32.90;35.40;;;;;;6223866;28;20033;-74
2021/06/18 10:49:54;;;;;;;6.20;3.17;;;32.90;35.30;;;;;;6253466;28;20519;-76
2021/06/18 10:53:18;;;;;;;4.85;3.53;;;33.00;35.10;;;;;;6272284;28;20037;-76
2021/06/18 10:56:40;;;;;;;6.38;3.15;;;32.80;35.00;;;;;;6245345;28;20374;-77
2021/06/18 10:59:46;;;;;;;8.80;3.17;;;32.90;34.80;;;;;;6254522;28;20039;-76
2021/06/18 11:02:48;;;;;;;9.50;3.80;;;33.10;34.80;;;;;;6251932;28;20033;-77
2021/06/18 11:05:49;;;;;;;7.25;3.17;;;33.10;34.40;;;;;;6272423;28;20442;-75
2021/06/18 11:08:50;;;;;;;10.98;3.75;;;33.70;33.70;;;;;;6255271;28;20094;-76
2021/06/18 11:11:52;;;;;;;7.70;3.80;;;34.90;32.00;;;;;;6255764;28;20035;-76
2021/06/18 11:15:00;;;;;;;8.43;3.15;;;36.10;30.50;;;;;;6254478;28;20104;-77
2021/06/18 11:18:03;;;;;;;3.45;3.15;;;37.00;29.50;;;;;;6232161;28;20465;-77
2021/06/18 11:21:07;;;;;;;6.18;2.80;;;37.70;28.50;;;;;;6253333;28;20342;-75
2021/06/18 11:24:08;;;;;;;5.00;4.03;;;38.20;27.80;;;;;;6256322;28;20044;-75
2021/06/18 11:27:32;;;;;;;5.90;3.20;;;38.80;27.30;;;;;;6254059;28;20040;-76
2021/06/18 11:30:33;;;;;;;5.43;3.10;;;39.40;26.50;;;;;;6251712;28;20108;-75
2021/06/18 11:33:40;;;;;;;5.43;2.90;;;39.80;25.90;;;;;;6253668;28;20060;-76
2021/06/18 11:36:43;;;;;;;6.25;2.95;;;40.10;25.80;;;;;;6235641;28;20112;-76
2021/06/18 11:39:44;;;;;;;3.95;2.78;;;40.50;25.50;;;;;;6253819;28;20035;-76
2021/06/18 11:42:46;;;;;;;5.40;2.80;;;40.80;25.10;;;;;;6253584;28;20346;-76
2021/06/18 11:45:47;;;;;;;6.70;2.90;;;41.00;25.10;;;;;;6253179;28;20452;-76
2021/06/18 11:48:49;;;;;;;3.92;2.63;;;41.10;25.10;;;;;;6286125;28;20108;-77
2021/06/18 11:51:52;;;;;;;3.47;2.50;;;41.30;24.50;;;;;;6267504;28;20105;-76
2021/06/18 11:54:59;;;;;;;3.55;2.70;;;41.40;24.40;;;;;;6261909;28;20029;-76
2021/06/18 11:58:00;;;;;;;5.60;2.90;;;41.40;24.40;;;;;;6296941;28;20032;-77
2021/06/18 12:01:42;;;;;;;2.92;2.40;;;41.50;24.40;;;;;;6295656;28;20442;-76
2021/06/18 12:04:43;;;;;;;14.85;2.97;;;41.40;24.10;;;;;;6259342;28;20041;-78
2021/06/18 12:07:44;;;;;;;3.53;2.63;;;41.20;24.20;;;;;;6248035;28;20021;-76
2021/06/18 12:10:45;;;;;;;4.68;2.63;;;41.00;24.40;;;;;;6236556;28;20037;-76
2021/06/18 12:13:50;;;;;;;14.52;3.05;;;40.90;24.50;;;;;;6246277;28;20426;-75
2021/06/18 12:16:52;;;;;;;6.80;3.08;;;40.90;24.40;;;;;;6227583;28;20029;-76
2021/06/18 12:19:54;;;;;;;3.13;2.20;;;40.90;24.40;;;;;;6269564;28;20469;-76
2021/06/18 12:22:55;;;;;;;10.90;2.90;;;40.90;24.30;;;;;;6269906;28;20036;-75
2021/06/18 12:25:58;;;;;;;3.90;2.85;;;41.00;24.30;;;;;;6268916;28;20032;-75
2021/06/18 12:29:05;;;;;;;7.05;2.75;;;41.20;24.10;;;;;;6234876;28;20116;-76
2021/06/18 12:32:08;;;;;;;6.70;2.75;;;41.30;24.20;;;;;;6252488;28;20414;-76
2021/06/18 12:35:12;;;;;;;3.58;2.50;;;41.20;24.40;;;;;;6269911;28;20033;-77
2021/06/18 12:38:15;;;;;;;8.30;2.58;;;41.30;24.50;;;;;;6252786;28;20029;-76
2021/06/18 12:41:33;;;;;;;4.03;2.60;;;41.30;24.20;;;;;;6259150;28;20029;-76
2021/06/18 12:44:36;;;;;;;8.27;2.97;;;41.10;24.20;;;;;;6265889;28;20214;-75
2021/06/18 12:47:40;;;;;;;10.13;2.70;;;41.00;24.40;;;;;;6266199;28;20074;-76
2021/06/18 12:50:51;;;;;;;8.75;2.72;;;41.10;24.30;;;;;;6217005;28;20040;-75
2021/06/18 12:54:02;;;;;;;11.27;2.65;;;41.20;24.20;;;;;;6240704;28;20111;-75
2021/06/18 12:57:04;;;;;;;4.65;2.85;;;41.20;24.10;;;;;;6216858;28;20119;-76
2021/06/18 13:00:10;;;;;;;3.72;2.67;;;41.20;24.10;;;;;;6234179;28;20427;-75
2021/06/18 13:03:12;;;;;;;10.98;3.33;;;41.20;24.10;;;;;;6226661;28;20021;-76
2021/06/18 13:06:14;;;;;;;6.32;2.63;;;41.40;24.40;;;;;;6256861;28;20029;-76
2021/06/18 13:09:32;;;;;;;9.35;2.97;;;41.50;23.80;;;;;;6232282;28;20039;-75
2021/06/18 13:12:33;;;;;;;;;;;41.80;23.70;;;;;;6257398;28;20029;-76
2021/06/18 13:15:34;;;;;;;9.07;2.78;;;42.20;23.30;;;;;;6261932;28;19996;-76
2021/06/18 13:18:57;;;;;;;3.28;2.47;;;42.70;22.90;;;;;;6254495;28;20029;-76
2021/06/18 13:21:59;;;;;;;4.95;2.75;;;43.20;22.60;;;;;;6277785;28;20037;-75
2021/06/18 13:25:09;;;;;;;8.13;2.70;;;43.50;22.20;;;;;;6294177;28;20108;-75
2021/06/18 13:28:11;;;;;;;5.80;2.58;;;44.20;21.90;;;;;;6277922;28;20094;-77
2021/06/18 13:31:22;;;;;;;6.35;3.05;;;44.70;21.30;;;;;;6283175;28;20060;-76
2021/06/18 13:34:28;;;;;;;6.70;2.85;;;45.20;21.00;;;;;;6277557;28;20037;-76
2021/06/18 13:37:31;;;;;;;12.83;2.83;;;45.70;20.60;;;;;;6259555;28;20121;-75
2021/06/18 13:40:47;;;;;;;4.95;2.70;;;46.00;20.20;;;;;;6274782;28;20524;-76
2021/06/18 13:43:52;;;;;;;9.10;3.10;;;46.50;19.80;;;;;;6252720;28;20029;-76
2021/06/18 13:46:52;;;;;;;7.90;2.95;;;46.20;19.80;;;;;;6248184;28;20073;-76
2021/06/18 13:50:08;;;;;;;5.85;2.55;;;46.00;20.00;;;;;;6256212;28;20029;-75
2021/06/18 13:53:09;;;;;;;11.20;3.08;;;45.80;20.20;;;;;;6243247;28;20052;-75
2021/06/18 13:56:11;;;;;;;7.63;2.65;;;45.60;20.20;;;;;;6256753;28;20534;-76
2021/06/18 13:59:12;;;;;;;13.70;6.03;;;45.50;20.20;;;;;;6278257;28;20337;-76
2021/06/18 14:02:13;;;;;;;8.25;2.75;;;45.50;20.40;;;;;;6257695;28;20442;-77
2021/06/18 14:05:14;;;;;;;4.70;2.75;;;45.70;20.30;;;;;;6258905;28;20382;-76
2021/06/18 14:08:15;;;;;;;5.60;2.83;;;46.20;20.10;;;;;;6256869;28;20040;-76
2021/06/18 14:11:22;;;;;;;6.68;3.25;;;46.40;19.90;;;;;;6255449;28;20109;-76
2021/06/18 14:14:23;;;;;;;6.28;2.83;;;46.30;19.90;;;;;;6272178;28;20036;-76
2021/06/18 14:17:25;;;;;;;5.10;2.35;;;46.00;20.00;;;;;;6255570;28;20354;-76
2021/06/18 14:20:27;;;;;;;9.00;2.75;;;45.90;20.10;;;;;;6256524;28;20021;-76
2021/06/18 14:23:28;;;;;;;7.97;2.60;;;45.80;20.20;;;;;;6274791;28;20040;-77
2021/06/18 14:26:30;;;;;;;8.70;2.75;;;45.80;20.30;;;;;;6254920;28;20116;-76
2021/06/18 14:29:32;;;;;;;9.48;2.83;;;46.00;20.20;;;;;;6272590;28;20487;-76
2021/06/18 14:32:33;;;;;;;8.85;2.67;;;46.40;19.70;;;;;;6255753;28;20178;-76
2021/06/18 14:35:35;;;;;;;4.38;2.30;;;46.80;19.70;;;;;;6273081;28;20044;-76
2021/06/18 14:38:35;;;;;;;6.05;2.78;;;46.90;19.40;;;;;;6233737;28;20041;-75
2021/06/18 14:41:36;;;;;;;12.32;3.00;;;46.90;19.40;;;;;;6270673;28;20032;-76
2021/06/18 14:44:38;;;;;;;9.27;2.90;;;46.90;19.40;;;;;;6261497;28;20441;-76
2021/06/18 14:47:39;;;;;;;7.45;2.67;;;47.10;20.00;;;;;;6254738;28;20032;-76
2021/06/18 14:50:41;;;;;;;9.20;2.70;;;46.90;19.60;;;;;;6284754;28;20130;-77
2021/06/18 14:53:42;;;;;;;15.10;3.25;;;46.60;19.70;;;;;;6309083;28;20046;-76
2021/06/18 14:56:43;;;;;;;4.88;2.90;;;46.40;20.00;;;;;;6291277;28;20036;-76
2021/06/18 14:59:44;;;;;;;4.68;2.58;;;46.30;20.10;;;;;;6310746;28;20036;-76
2021/06/18 15:02:45;;;;;;;6.05;2.90;;;46.30;20.10;;;;;;6274816;28;20102;-77
2021/06/18 15:05:46;;;;;;;11.40;3.00;;;46.50;20.10;;;;;;6257698;28;20036;-76
2021/06/18 15:08:48;;;;;;;5.15;2.90;;;46.70;19.90;;;;;;6256359;28;20444;-76
2021/06/18 15:11:49;;;;;;;6.80;3.00;;;46.60;19.80;;;;;;6274080;28;20035;-76
2021/06/18 15:14:50;;;;;;;6.90;2.92;;;46.30;20.00;;;;;;6270589;28;20032;-76
2021/06/18 15:17:51;;;;;;;7.47;3.08;;;45.80;20.40;;;;;;6297912;28;20024;-77
2021/06/18 15:20:52;;;;;;;8.27;4.55;;;45.50;20.80;;;;;;6263526;28;20028;-75
2021/06/18 15:23:54;;;;;;;8.65;3.40;;;45.10;21.10;;;;;;6279203;28;20028;-76
2021/06/18 15:26:55;;;;;;;7.75;3.08;;;44.70;21.40;;;;;;6278950;28;20483;-76
2021/06/18 15:29:56;;;;;;;11.30;3.13;;;44.30;21.80;;;;;;6278705;28;20090;-76
2021/06/18 15:32:57;;;;;;;8.07;3.00;;;43.90;22.20;;;;;;6268428;28;20441;-76
2021/06/18 15:35:59;;;;;;;9.63;3.33;;;43.70;22.60;;;;;;6254643;28;20049;-75
2021/06/18 15:39:01;;;;;;;15.35;3.22;;;43.60;22.70;;;;;;6254323;28;20045;-76
2021/06/18 15:42:02;;;;;;;12.00;3.00;;;43.60;22.80;;;;;;6271061;28;20025;-76
2021/06/18 15:45:05;;;;;;;9.13;3.10;;;43.50;22.90;;;;;;6271092;28;20048;-75
2021/06/18 15:48:06;;;;;;;8.02;2.90;;;43.60;23.00;;;;;;6254648;28;20434;-75
2021/06/18 15:51:08;;;;;;;7.55;2.90;;;43.70;22.80;;;;;;6237213;28;20353;-76
2021/06/18 15:54:09;;;;;;;5.22;2.95;;;43.70;22.80;;;;;;6256570;28;20032;-75
2021/06/18 15:57:10;;;;;;;9.85;3.13;;;43.50;23.00;;;;;;6296943;28;20334;-76
2021/06/18 16:00:11;;;;;;;9.25;2.83;;;43.40;23.10;;;;;;6262215;28;20043;-77